This is the latest recevied weather packets stored in our database for station/object G0TGD-10. If no packets are shown the sender has not sent any weather packets the latest 10 day(s).
| Time | Temp. | Humidity | Pressure | Rain* | Wind** | Luminosity | Snow |
|---|---|---|---|---|---|---|---|
| 1778086290 | 10.56° C | 62% | 1014.9 hPa | - | - | - | - |
| 1778085390 | 10° C | 62% | 1014.9 hPa | - | - | - | - |
| 1778084489 | 10.56° C | 62% | 1015 hPa | - | - | - | - |
| 1778083589 | 11.11° C | 61% | 1014.8 hPa | - | - | - | - |
| 1778082689 | 11.11° C | 61% | 1014.9 hPa | - | - | - | - |
| 1778081789 | 12.22° C | 61% | 1014.9 hPa | - | - | - | - |
| 1778080889 | 11.67° C | 61% | 1015 hPa | - | - | - | - |
| 1778079989 | 11.67° C | 60% | 1015 hPa | - | - | - | - |
| 1778079089 | 12.78° C | 60% | 1015.1 hPa | - | - | - | - |
| 1778078189 | 12.22° C | 60% | 1015.1 hPa | - | - | - | - |
| 1778077289 | 12.22° C | 60% | 1015 hPa | - | - | - | - |
| 1778076389 | 12.22° C | 60% | 1015.1 hPa | - | - | - | - |
| 1778075489 | 12.78° C | 60% | 1014.9 hPa | - | - | - | - |
| 1778074588 | 12.78° C | 60% | 1015 hPa | - | - | - | - |
| 1778073688 | 13.33° C | 59% | 1014.9 hPa | - | - | - | - |
| 1778072788 | 15.56° C | 57% | 1014.8 hPa | - | - | - | - |
| 1778071888 | 16.11° C | 56% | 1014.7 hPa | - | - | - | - |
| 1778070988 | 17.22° C | 55% | 1014.6 hPa | - | - | - | - |
| 1778070088 | 16.11° C | 59% | 1014.6 hPa | - | - | - | - |
| 1778069188 | 14.44° C | 60% | 1014.6 hPa | - | - | - | - |
| 1778068288 | 13.89° C | 59% | 1014.6 hPa | - | - | - | - |
| 1778067388 | 13.89° C | 59% | 1014.7 hPa | - | - | - | - |
| 1778066488 | 16.11° C | 57% | 1014.6 hPa | - | - | - | - |
| 1778065588 | 15° C | 59% | 1014.6 hPa | - | - | - | - |
| 1778064688 | 15° C | 59% | 1014.8 hPa | - | - | - | - |
* Rain since midnight (hover to see other rain measurements)
** Current wind speed in m/s (hover to see current wind gust speed)